Time;durP1;ratioP1;P1;durP2;ratioP2;P2;SDS_P1;SDS_P2;PMS_P1;PMS_P2;Temp;Humidity;BMP_temperature;BMP_pressure;BME280_temperature;BME280_humidity;BME280_pressure;Samples;Min_cycle;Max_cycle;Signal;HPM_P1;HPM_P2
2021/12/05 00:23:45;;;;;;;50.40;28.42;;;2.60;99.90;;;;;;5108650;28;20061;-43
2021/12/05 00:26:16;;;;;;;50.78;26.88;;;2.60;99.90;;;;;;5087229;28;20031;-42
2021/12/05 00:37:27;;;;;;;45.42;27.17;;;2.70;99.90;;;;;;5096297;28;20035;-45
2021/12/05 00:42:41;;;;;;;58.65;27.48;;;2.80;99.90;;;;;;5087490;28;20631;-43
2021/12/05 00:53:21;;;;;;;41.65;24.17;;;3.00;99.90;;;;;;5063023;28;20040;-42
2021/12/05 01:03:50;;;;;;;45.88;25.85;;;3.00;99.90;;;;;;5085130;28;20516;-42
2021/12/05 01:06:45;;;;;;;38.08;23.45;;;3.00;99.90;;;;;;5096585;28;20092;-43
2021/12/05 01:12:05;;;;;;;42.35;25.45;;;3.10;99.90;;;;;;5088257;28;20115;-43
2021/12/05 01:14:37;;;;;;;40.28;24.63;;;3.10;99.90;;;;;;5086890;28;20159;-43
2021/12/05 01:17:03;;;;;;;41.28;24.98;;;3.10;99.90;;;;;;5088085;28;20390;-43
2021/12/05 01:19:31;;;;;;;41.47;24.45;;;3.10;99.90;;;;;;5086061;28;20051;-42
2021/12/05 01:22:02;;;;;;;40.35;24.75;;;3.10;99.90;;;;;;5088080;28;20095;-43
2021/12/05 01:24:49;;;;;;;37.00;23.75;;;3.10;99.90;;;;;;5087268;28;20086;-43
2021/12/05 01:33:11;;;;;;;37.83;22.38;;;3.20;99.90;;;;;;5044772;28;20029;-44
2021/12/05 01:38:54;;;;;;;35.28;21.33;;;3.20;99.90;;;;;;5067559;28;20074;-43
2021/12/05 01:44:32;;;;;;;34.17;20.17;;;3.30;99.90;;;;;;5067207;28;20032;-43
2021/12/05 01:52:29;;;;;;;32.85;19.70;;;3.40;99.90;;;;;;5071994;28;20029;-43
2021/12/05 02:32:54;;;;;;;28.52;17.10;;;3.70;99.90;;;;;;5090464;28;20532;-48
2021/12/05 02:35:53;;;;;;;26.08;15.88;;;3.70;99.90;;;;;;5090820;28;20020;-48
2021/12/05 02:41:09;;;;;;;28.00;15.48;;;3.70;99.90;;;;;;5090864;28;20085;-50
2021/12/05 02:43:41;;;;;;;26.35;14.40;;;3.80;99.90;;;;;;5089167;28;20024;-48
2021/12/05 02:46:09;;;;;;;25.38;14.23;;;3.80;99.90;;;;;;5091661;28;20035;-49
2021/12/05 02:48:37;;;;;;;23.70;14.63;;;3.80;99.90;;;;;;5091007;28;20028;-48
2021/12/05 02:51:09;;;;;;;27.35;15.38;;;3.90;99.90;;;;;;5090981;28;20028;-48
2021/12/05 02:53:41;;;;;;;28.70;14.60;;;3.80;99.90;;;;;;5090423;28;20501;-49
2021/12/05 02:56:08;;;;;;;24.88;14.85;;;3.90;99.90;;;;;;5091411;28;20028;-48
2021/12/05 02:58:48;;;;;;;27.50;15.02;;;3.90;99.90;;;;;;5090956;28;20444;-49
2021/12/05 03:01:22;;;;;;;26.45;14.98;;;3.90;99.90;;;;;;5089559;28;20405;-48
2021/12/05 03:03:50;;;;;;;22.38;12.75;;;3.90;99.90;;;;;;5089854;28;20100;-48
2021/12/05 03:06:22;;;;;;;23.73;13.30;;;4.00;99.90;;;;;;5101623;28;20043;-48
2021/12/05 03:08:51;;;;;;;25.73;13.93;;;4.00;99.90;;;;;;5110456;28;20070;-47
2021/12/05 03:11:17;;;;;;;25.05;14.23;;;4.00;99.90;;;;;;5111938;28;20016;-50
2021/12/05 03:13:43;;;;;;;30.80;16.10;;;4.00;99.90;;;;;;5111203;28;20015;-47
2021/12/05 03:16:11;;;;;;;28.67;14.45;;;4.00;99.90;;;;;;5111534;28;20038;-48
2021/12/05 03:18:37;;;;;;;27.77;15.00;;;4.10;99.90;;;;;;5111961;28;20027;-50
2021/12/05 03:21:04;;;;;;;28.13;15.10;;;4.10;99.90;;;;;;5111566;27;20108;-47
2021/12/05 03:23:31;;;;;;;24.40;12.70;;;4.10;99.90;;;;;;5111056;28;20019;-48
2021/12/05 03:25:57;;;;;;;32.60;16.58;;;4.10;99.90;;;;;;5112002;28;20020;-47
2021/12/05 03:28:23;;;;;;;28.70;15.20;;;4.10;99.90;;;;;;5111711;28;20019;-47
2021/12/05 03:30:49;;;;;;;30.48;16.00;;;4.10;99.90;;;;;;5111334;28;20020;-47
2021/12/05 03:33:15;;;;;;;29.55;15.60;;;4.20;99.90;;;;;;5110934;28;20038;-48
2021/12/05 03:35:41;;;;;;;31.35;16.50;;;4.20;99.90;;;;;;5102209;28;20470;-47
2021/12/05 03:38:06;;;;;;;35.42;17.70;;;4.20;99.90;;;;;;5107722;28;20035;-47
2021/12/05 03:40:33;;;;;;;32.97;18.27;;;4.20;99.90;;;;;;5111117;28;20024;-47
2021/12/05 03:43:02;;;;;;;33.45;16.33;;;4.20;99.90;;;;;;5111015;28;20110;-47
2021/12/05 03:45:32;;;;;;;40.92;18.83;;;4.20;99.90;;;;;;5110294;28;20063;-47
2021/12/05 03:47:58;;;;;;;40.70;19.20;;;4.20;99.90;;;;;;5092906;28;20469;-47
2021/12/05 03:50:26;;;;;;;31.02;17.30;;;4.20;99.90;;;;;;5110917;28;20110;-49
2021/12/05 03:52:52;;;;;;;35.80;18.75;;;4.30;99.90;;;;;;5111098;28;20024;-47
2021/12/05 03:55:18;;;;;;;36.22;19.55;;;4.30;99.90;;;;;;5110690;28;20046;-48
2021/12/05 03:57:44;;;;;;;38.70;20.55;;;4.20;99.90;;;;;;5111560;28;20589;-49
2021/12/05 04:00:20;;;;;;;34.40;20.63;;;4.20;99.90;;;;;;5110860;28;20036;-48
2021/12/05 04:02:47;;;;;;;44.28;19.67;;;4.20;99.90;;;;;;5110897;28;20031;-48
2021/12/05 04:05:13;;;;;;;34.22;20.05;;;4.30;99.90;;;;;;5105569;28;20073;-48
2021/12/05 04:07:38;;;;;;;38.30;19.70;;;4.30;99.90;;;;;;5103691;28;20047;-48
2021/12/05 04:10:04;;;;;;;38.20;20.75;;;4.30;99.90;;;;;;5110870;28;20408;-49
2021/12/05 04:12:30;;;;;;;38.33;20.83;;;4.20;99.90;;;;;;5110055;28;20102;-48
2021/12/05 04:14:56;;;;;;;39.78;22.45;;;4.30;99.90;;;;;;5110055;28;20177;-48
2021/12/05 04:17:23;;;;;;;43.28;22.20;;;4.30;99.90;;;;;;5110497;28;20019;-48
2021/12/05 04:19:48;;;;;;;42.58;22.42;;;4.30;99.90;;;;;;5108960;28;20032;-48
2021/12/05 04:22:15;;;;;;;41.65;23.30;;;4.30;99.90;;;;;;5109115;28;20366;-49
2021/12/05 04:24:41;;;;;;;48.25;23.92;;;4.30;99.90;;;;;;5109678;28;20022;-49
2021/12/05 04:27:08;;;;;;;43.80;24.23;;;4.40;99.90;;;;;;5110148;28;20096;-48
2021/12/05 04:29:34;;;;;;;40.22;24.00;;;4.30;99.90;;;;;;5110254;28;20039;-48
2021/12/05 04:32:00;;;;;;;36.38;21.95;;;4.30;99.90;;;;;;5110035;27;20019;-51
2021/12/05 04:34:26;;;;;;;41.70;22.00;;;4.30;99.90;;;;;;5105923;28;20053;-49
2021/12/05 04:36:57;;;;;;;40.10;22.35;;;4.40;99.90;;;;;;5100039;28;20023;-48
2021/12/05 04:39:28;;;;;;;39.65;21.33;;;4.40;99.90;;;;;;5110435;28;20461;-48
2021/12/05 04:41:55;;;;;;;38.33;22.35;;;4.40;99.90;;;;;;5110002;28;20076;-49
2021/12/05 04:44:22;;;;;;;37.92;21.83;;;4.40;99.90;;;;;;5108188;28;20026;-50
2021/12/05 04:46:48;;;;;;;36.20;20.67;;;4.40;99.90;;;;;;5109602;28;20020;-48
2021/12/05 04:49:14;;;;;;;42.00;22.48;;;4.40;99.90;;;;;;5109878;28;20032;-49
2021/12/05 04:51:43;;;;;;;40.10;22.15;;;4.40;99.90;;;;;;5108660;28;20107;-49
2021/12/05 04:54:14;;;;;;;40.17;22.70;;;4.40;99.90;;;;;;5109728;28;20024;-50
2021/12/05 04:56:40;;;;;;;38.78;21.27;;;4.40;99.90;;;;;;5108515;28;20333;-48
2021/12/05 04:59:13;;;;;;;40.92;23.30;;;4.40;99.90;;;;;;5093874;28;20043;-47
2021/12/05 05:01:41;;;;;;;43.50;23.35;;;4.40;99.90;;;;;;5089180;28;20493;-50
2021/12/05 05:04:15;;;;;;;38.75;21.83;;;4.40;99.90;;;;;;5085728;28;20055;-50
2021/12/05 05:06:41;;;;;;;41.53;23.80;;;4.40;99.90;;;;;;5097450;28;20107;-49
2021/12/05 05:09:06;;;;;;;37.85;21.20;;;4.50;99.90;;;;;;5099674;28;20058;-47
2021/12/05 05:11:32;;;;;;;40.65;21.25;;;4.50;99.90;;;;;;5087683;28;20024;-48
2021/12/05 05:13:58;;;;;;;41.97;22.20;;;4.50;99.90;;;;;;5086830;28;20055;-47
2021/12/05 05:16:25;;;;;;;38.20;21.35;;;4.50;99.90;;;;;;5088652;28;20028;-48
2021/12/05 05:18:54;;;;;;;37.70;20.25;;;4.50;99.90;;;;;;5089087;28;20054;-47
2021/12/05 05:24:18;;;;;;;41.33;21.67;;;4.60;99.90;;;;;;5087511;28;20355;-48
2021/12/05 05:40:55;;;;;;;44.30;20.05;;;4.70;99.90;;;;;;5089120;28;20035;-56
2021/12/05 05:50:39;;;;;;;34.55;18.60;;;4.70;99.90;;;;;;5088841;28;20032;-49
2021/12/05 05:53:05;;;;;;;31.75;19.08;;;4.70;99.90;;;;;;5089052;28;20439;-52
2021/12/05 05:55:31;;;;;;;31.25;17.45;;;4.70;99.90;;;;;;5088691;28;20032;-52
2021/12/05 06:00:35;;;;;;;34.28;19.27;;;4.70;99.90;;;;;;5088632;28;20116;-52
2021/12/05 06:03:21;;;;;;;38.50;20.17;;;4.70;99.90;;;;;;5088512;28;20024;-48
2021/12/05 06:05:59;;;;;;;32.60;18.92;;;4.70;99.90;;;;;;5086647;28;20556;-48
2021/12/05 06:08:27;;;;;;;37.33;19.35;;;4.70;99.90;;;;;;5093080;28;20066;-51
2021/12/05 06:10:57;;;;;;;36.72;19.52;;;4.70;99.90;;;;;;5107586;28;20035;-48
2021/12/05 06:13:23;;;;;;;39.33;17.53;;;4.60;99.90;;;;;;5104301;28;20028;-47
2021/12/05 06:15:51;;;;;;;31.35;16.08;;;4.70;99.90;;;;;;5088690;28;20032;-52
2021/12/05 06:18:17;;;;;;;32.85;16.38;;;4.60;99.90;;;;;;5088517;28;20393;-52
2021/12/05 06:20:43;;;;;;;37.95;17.17;;;4.60;99.90;;;;;;5087960;28;20024;-49
2021/12/05 06:23:10;;;;;;;27.30;14.82;;;4.60;99.90;;;;;;5086854;28;20035;-52
2021/12/05 06:25:38;;;;;;;33.55;15.55;;;4.60;99.90;;;;;;5086231;28;20017;-52
2021/12/05 06:28:10;;;;;;;30.88;15.73;;;4.50;99.90;;;;;;5087811;28;20491;-52
2021/12/05 06:30:53;;;;;;;27.85;15.10;;;4.50;99.90;;;;;;5086089;28;20032;-51
2021/12/05 06:39:15;;;;;;;30.83;14.60;;;4.40;99.90;;;;;;5108401;28;20400;-51
2021/12/05 06:47:01;;;;;;;26.25;13.15;;;4.30;99.90;;;;;;5112196;28;20207;-50
2021/12/05 06:49:27;;;;;;;31.42;14.85;;;4.30;99.90;;;;;;5112131;28;20019;-52
2021/12/05 06:51:53;;;;;;;31.48;15.32;;;4.20;99.90;;;;;;5112821;28;20524;-48
2021/12/05 06:54:19;;;;;;;23.92;13.63;;;4.20;99.90;;;;;;5111882;28;20111;-49
2021/12/05 06:56:44;;;;;;;28.05;12.70;;;4.10;99.90;;;;;;5112554;28;20044;-50
2021/12/05 06:59:10;;;;;;;22.52;12.35;;;4.10;99.90;;;;;;5112598;28;20614;-49
2021/12/05 07:01:35;;;;;;;18.75;12.30;;;4.00;99.90;;;;;;5113525;28;20027;-49
2021/12/05 07:04:09;;;;;;;26.73;11.65;;;3.90;99.90;;;;;;5112784;28;20026;-49
2021/12/05 07:06:38;;;;;;;26.55;13.68;;;3.90;99.90;;;;;;5094627;28;20012;-48
2021/12/05 07:09:08;;;;;;;34.25;16.17;;;3.80;99.90;;;;;;5110914;28;20364;-48
2021/12/05 07:14:45;;;;;;;20.50;12.45;;;3.80;99.90;;;;;;5090828;28;20548;-49
2021/12/05 07:19:59;;;;;;;26.05;14.10;;;3.80;99.90;;;;;;5092964;28;20035;-47
2021/12/05 07:22:42;;;;;;;28.70;14.05;;;3.80;99.90;;;;;;5092460;28;20024;-49
2021/12/05 07:25:35;;;;;;;29.55;15.02;;;3.80;99.90;;;;;;5091729;28;20024;-51
2021/12/05 07:41:52;;;;;;;24.00;12.85;;;3.70;99.90;;;;;;5112485;28;20031;-47
2021/12/05 07:44:18;;;;;;;27.33;13.13;;;3.70;99.90;;;;;;5111712;28;20016;-49
2021/12/05 07:46:45;;;;;;;23.55;12.77;;;3.60;99.90;;;;;;5111043;28;20514;-48
2021/12/05 07:49:12;;;;;;;27.77;12.25;;;3.70;99.90;;;;;;5112252;28;20015;-49
2021/12/05 07:51:41;;;;;;;24.52;12.93;;;3.70;99.90;;;;;;5111994;28;20018;-48
2021/12/05 07:54:14;;;;;;;24.30;12.43;;;3.70;99.90;;;;;;5111591;28;20024;-49
2021/12/05 07:56:57;;;;;;;23.15;10.93;;;3.70;99.90;;;;;;5112283;28;20111;-49
2021/12/05 08:15:44;;;;;;;21.13;10.88;;;4.10;99.90;;;;;;5091679;28;20492;-48
2021/12/05 08:18:10;;;;;;;17.20;10.05;;;4.10;99.90;;;;;;5091512;28;20020;-48
2021/12/05 08:20:38;;;;;;;19.73;10.27;;;4.20;99.90;;;;;;5091070;28;20042;-49
2021/12/05 08:23:05;;;;;;;18.63;10.80;;;4.20;99.90;;;;;;5091304;28;20054;-50
2021/12/05 08:25:33;;;;;;;18.33;10.18;;;4.30;99.90;;;;;;5090713;28;20028;-50
2021/12/05 08:30:45;;;;;;;19.98;11.10;;;4.30;99.90;;;;;;5091215;28;20028;-50
2021/12/05 08:33:30;;;;;;;18.08;9.30;;;4.30;99.90;;;;;;5090967;28;20449;-49
2021/12/05 08:36:33;;;;;;;19.48;9.48;;;4.30;99.90;;;;;;5091881;28;20047;-50
2021/12/05 09:20:03;;;;;;;16.63;8.38;;;4.60;99.90;;;;;;5106521;28;20039;-53
2021/12/05 09:23:06;;;;;;;14.02;6.18;;;4.60;99.90;;;;;;5110602;28;20077;-45
2021/12/05 09:30:50;;;;;;;13.40;6.78;;;4.70;99.90;;;;;;5110543;28;20036;-45
2021/12/05 10:07:00;;;;;;;29.38;6.22;;;5.20;99.90;;;;;;5098682;28;20098;-45
2021/12/05 10:10:03;;;;;;;13.73;5.13;;;5.30;99.90;;;;;;5069664;28;20043;-44
2021/12/05 10:12:55;;;;;;;11.80;4.68;;;5.30;99.90;;;;;;5073454;28;20028;-46
2021/12/05 10:26:37;;;;;;;10.38;4.35;;;6.10;99.90;;;;;;5073819;28;20116;-44
2021/12/05 10:35:23;;;;;;;10.27;4.40;;;6.30;99.90;;;;;;5081041;28;20031;-45
2021/12/05 10:37:55;;;;;;;10.88;4.57;;;6.30;99.90;;;;;;5104972;28;20015;-46
2021/12/05 10:40:34;;;;;;;15.65;4.65;;;6.30;99.90;;;;;;5113545;28;20449;-45
2021/12/05 10:43:00;;;;;;;8.45;4.35;;;6.30;99.90;;;;;;5112547;28;20475;-45
2021/12/05 10:45:38;;;;;;;11.50;4.57;;;6.20;99.90;;;;;;5112757;28;20105;-45
2021/12/05 10:48:08;;;;;;;8.93;4.63;;;6.20;99.90;;;;;;5113537;28;20059;-46
2021/12/05 10:50:45;;;;;;;11.13;4.00;;;6.20;99.90;;;;;;5113258;28;20156;-45
2021/12/05 10:53:28;;;;;;;15.35;5.15;;;6.20;99.90;;;;;;5111691;28;20264;-46
2021/12/05 10:56:14;;;;;;;14.38;5.05;;;6.10;99.90;;;;;;5113395;27;20126;-45
2021/12/05 10:58:49;;;;;;;11.38;4.57;;;6.10;99.90;;;;;;5112029;28;20020;-45
2021/12/05 11:01:22;;;;;;;10.73;4.68;;;6.10;99.90;;;;;;5112950;28;20058;-46
2021/12/05 11:03:52;;;;;;;11.70;4.47;;;6.20;99.90;;;;;;5112349;28;20048;-45
2021/12/05 11:06:25;;;;;;;8.98;3.40;;;6.20;99.90;;;;;;5097993;28;20130;-45
2021/12/05 11:08:54;;;;;;;7.03;3.92;;;6.20;99.90;;;;;;5109248;28;20024;-45
2021/12/05 11:11:20;;;;;;;9.70;3.97;;;6.20;99.90;;;;;;5089789;28;20071;-46
2021/12/05 11:13:46;;;;;;;9.60;3.88;;;6.10;99.90;;;;;;5078071;28;20045;-45
2021/12/05 11:17:09;;;;;;;10.52;3.47;;;6.00;99.90;;;;;;5083301;28;20075;-46
2021/12/05 11:19:38;;;;;;;13.05;4.05;;;6.00;99.90;;;;;;5060506;28;20524;-45
2021/12/05 11:22:24;;;;;;;11.60;3.63;;;6.00;99.90;;;;;;5066823;28;20029;-46
2021/12/05 11:25:14;;;;;;;9.40;3.30;;;6.00;99.90;;;;;;5076755;28;20040;-45
2021/12/05 11:27:41;;;;;;;13.18;3.95;;;6.00;99.90;;;;;;5077572;28;20113;-46
2021/12/05 11:30:13;;;;;;;14.18;4.00;;;5.90;99.90;;;;;;5081592;28;20724;-45
2021/12/05 11:32:58;;;;;;;11.80;3.42;;;5.90;99.90;;;;;;5079344;28;20521;-46
2021/12/05 11:35:55;;;;;;;14.20;3.88;;;5.90;99.90;;;;;;5081490;28;20024;-44
2021/12/05 11:38:26;;;;;;;5.25;3.10;;;5.90;99.90;;;;;;5079129;28;20036;-45
2021/12/05 11:41:03;;;;;;;13.18;5.18;;;5.90;99.90;;;;;;5079986;28;20023;-45
2021/12/05 11:43:30;;;;;;;12.27;3.60;;;5.90;99.90;;;;;;5081295;28;20548;-45
2021/12/05 11:46:04;;;;;;;12.93;3.47;;;5.90;99.90;;;;;;5084730;28;20028;-48
2021/12/05 11:48:50;;;;;;;9.13;3.17;;;5.90;99.90;;;;;;5091943;28;20059;-45
2021/12/05 11:51:22;;;;;;;6.85;3.28;;;6.00;99.90;;;;;;5091608;28;20032;-47
2021/12/05 11:53:53;;;;;;;9.30;3.88;;;6.00;99.90;;;;;;5091302;28;20381;-45
2021/12/05 11:56:59;;;;;;;7.65;3.45;;;6.00;99.90;;;;;;5090510;28;20043;-45
2021/12/05 11:59:33;;;;;;;14.15;4.18;;;6.00;99.90;;;;;;5090450;28;20046;-45
2021/12/05 12:02:10;;;;;;;8.57;3.60;;;6.00;99.90;;;;;;5091367;28;20024;-45
2021/12/05 12:05:04;;;;;;;9.73;3.40;;;6.00;99.90;;;;;;5087973;28;20031;-46
2021/12/05 12:07:37;;;;;;;10.52;3.50;;;6.10;99.90;;;;;;5090510;28;20111;-45
2021/12/05 12:10:26;;;;;;;9.30;3.58;;;6.10;99.90;;;;;;5091254;28;20020;-48
2021/12/05 12:13:00;;;;;;;10.05;3.90;;;6.10;99.90;;;;;;5091224;28;20031;-46
2021/12/05 12:15:27;;;;;;;12.65;4.22;;;6.10;99.90;;;;;;5090584;28;20020;-46
2021/12/05 12:17:57;;;;;;;11.38;4.00;;;6.10;99.90;;;;;;5090997;28;20028;-45
2021/12/05 12:20:26;;;;;;;8.25;4.00;;;6.10;99.90;;;;;;5091029;28;20024;-47
2021/12/05 12:22:54;;;;;;;11.68;3.97;;;6.10;99.90;;;;;;5090034;28;20398;-45
2021/12/05 12:25:24;;;;;;;10.85;3.30;;;6.10;99.90;;;;;;5088798;28;20035;-47
2021/12/05 12:27:50;;;;;;;8.20;2.97;;;6.20;99.90;;;;;;5090541;28;20022;-45
2021/12/05 12:30:24;;;;;;;9.60;4.03;;;6.20;99.90;;;;;;5091048;28;20027;-45
2021/12/05 12:32:54;;;;;;;10.48;3.78;;;6.30;99.90;;;;;;5090112;28;20073;-45
2021/12/05 12:35:24;;;;;;;10.02;2.90;;;6.30;99.90;;;;;;5088934;28;20533;-46
2021/12/05 12:38:08;;;;;;;15.07;3.83;;;6.30;99.90;;;;;;5102380;28;20642;-46
2021/12/05 12:40:43;;;;;;;7.85;2.80;;;6.40;99.90;;;;;;5111104;28;20059;-45
2021/12/05 12:43:35;;;;;;;12.88;3.58;;;6.40;99.90;;;;;;5111025;28;20019;-44
2021/12/05 12:46:30;;;;;;;7.35;3.08;;;6.30;99.90;;;;;;5110646;28;20031;-45
2021/12/05 12:48:57;;;;;;;9.80;3.17;;;6.30;99.90;;;;;;5109147;28;20595;-45
2021/12/05 12:51:28;;;;;;;13.05;4.00;;;6.30;99.90;;;;;;5090285;28;20044;-45
2021/12/05 12:53:57;;;;;;;11.15;3.63;;;6.30;99.90;;;;;;5088816;28;20020;-45
2021/12/05 12:56:24;;;;;;;12.68;4.13;;;6.30;99.90;;;;;;5089011;28;20032;-44
2021/12/05 12:58:56;;;;;;;17.77;3.75;;;6.30;99.90;;;;;;5088757;28;20386;-45
2021/12/05 13:02:26;;;;;;;10.00;3.42;;;6.30;99.90;;;;;;5088660;28;20342;-46
2021/12/05 13:10:29;;;;;;;12.60;4.22;;;6.40;99.90;;;;;;5108856;28;20058;-45
2021/12/05 13:13:18;;;;;;;8.38;3.40;;;6.40;99.90;;;;;;5108915;28;20024;-45
2021/12/05 13:15:52;;;;;;;10.27;3.53;;;6.30;99.90;;;;;;5109054;28;20024;-45
2021/12/05 13:18:23;;;;;;;11.80;4.13;;;6.30;99.90;;;;;;5108697;28;20062;-45
2021/12/05 13:20:59;;;;;;;6.88;3.10;;;6.40;99.90;;;;;;5107824;28;20392;-45
2021/12/05 13:23:31;;;;;;;6.45;2.95;;;6.40;99.90;;;;;;5107229;28;20480;-46
2021/12/05 13:26:19;;;;;;;9.30;3.25;;;6.40;99.90;;;;;;5107372;28;20027;-45
2021/12/05 13:29:10;;;;;;;9.80;3.00;;;6.50;99.90;;;;;;5108596;28;20027;-46
2021/12/05 13:31:41;;;;;;;9.93;3.47;;;6.50;99.90;;;;;;5109163;28;20438;-45
2021/12/05 13:34:24;;;;;;;14.43;3.38;;;6.50;99.90;;;;;;5107666;28;20027;-45
2021/12/05 13:37:18;;;;;;;14.63;3.78;;;6.50;99.90;;;;;;5091569;28;20012;-45
2021/12/05 13:40:05;;;;;;;12.60;3.95;;;6.50;99.90;;;;;;5108046;28;20505;-45
2021/12/05 13:42:39;;;;;;;9.80;3.70;;;6.50;99.90;;;;;;5106528;28;20345;-48
2021/12/05 13:45:05;;;;;;;9.27;3.70;;;6.60;99.90;;;;;;5109828;28;20232;-46
2021/12/05 13:47:51;;;;;;;8.25;3.50;;;6.60;99.90;;;;;;5112002;28;20052;-46
2021/12/05 13:50:23;;;;;;;15.63;3.58;;;6.60;99.90;;;;;;5108213;28;20039;-45
2021/12/05 13:52:59;;;;;;;8.02;3.03;;;6.60;99.90;;;;;;5112603;28;20102;-45
2021/12/05 13:55:45;;;;;;;7.82;3.40;;;6.60;99.90;;;;;;5112002;28;20035;-45
2021/12/05 13:58:30;;;;;;;10.15;3.60;;;6.60;99.90;;;;;;5112191;28;20427;-46
2021/12/05 14:01:03;;;;;;;10.13;3.58;;;6.50;99.90;;;;;;5111196;28;20056;-47
2021/12/05 14:03:51;;;;;;;11.98;4.20;;;6.50;99.90;;;;;;5111861;28;20404;-46
2021/12/05 14:06:35;;;;;;;8.00;3.25;;;6.40;99.90;;;;;;5105048;28;20419;-46
2021/12/05 14:09:24;;;;;;;7.68;2.90;;;6.30;99.90;;;;;;5109581;28;20062;-45
2021/12/05 14:12:02;;;;;;;6.50;2.95;;;6.20;99.90;;;;;;5111070;28;20023;-45
2021/12/05 14:14:34;;;;;;;10.98;3.63;;;6.10;99.90;;;;;;5110637;28;20387;-45
2021/12/05 14:17:04;;;;;;;9.27;3.55;;;6.00;99.90;;;;;;5110863;28;20259;-46
2021/12/05 14:19:32;;;;;;;12.98;3.33;;;5.90;99.90;;;;;;5112052;28;20035;-45
2021/12/05 14:22:01;;;;;;;10.57;3.10;;;5.80;99.90;;;;;;5110780;28;20027;-46
2021/12/05 14:24:33;;;;;;;4.90;2.90;;;5.80;99.90;;;;;;5111493;28;20262;-45
2021/12/05 14:27:02;;;;;;;8.95;4.18;;;5.70;99.90;;;;;;5110177;28;20016;-47
2021/12/05 14:29:29;;;;;;;7.47;3.30;;;5.60;99.90;;;;;;5110732;28;20477;-45
2021/12/05 14:32:21;;;;;;;6.68;2.67;;;5.50;99.90;;;;;;5112218;28;20051;-45
2021/12/05 14:34:47;;;;;;;8.63;3.05;;;5.50;99.90;;;;;;5108218;28;20489;-47
2021/12/05 14:37:19;;;;;;;5.95;3.25;;;5.50;99.90;;;;;;5100870;28;20487;-45
2021/12/05 14:39:46;;;;;;;9.70;3.60;;;5.40;99.90;;;;;;5112016;27;20024;-45
2021/12/05 14:42:18;;;;;;;8.57;3.75;;;5.30;99.90;;;;;;5111943;28;20024;-45
2021/12/05 14:44:48;;;;;;;8.15;3.35;;;5.30;99.90;;;;;;5111040;28;20028;-45
2021/12/05 14:47:18;;;;;;;6.77;3.53;;;5.20;99.90;;;;;;5111275;28;20032;-45
2021/12/05 14:49:47;;;;;;;9.10;3.90;;;5.10;99.90;;;;;;5111765;28;20027;-44
2021/12/05 14:52:19;;;;;;;7.13;3.80;;;5.00;99.90;;;;;;5111378;28;20035;-45
2021/12/05 14:54:45;;;;;;;9.13;4.80;;;5.00;99.90;;;;;;5109209;28;20028;-44
2021/12/05 14:57:13;;;;;;;9.48;4.43;;;4.90;99.90;;;;;;5109144;28;20416;-46
2021/12/05 14:59:42;;;;;;;9.98;4.55;;;4.90;99.90;;;;;;5110291;28;20042;-46
2021/12/05 15:02:08;;;;;;;10.90;5.15;;;4.80;99.90;;;;;;5109706;28;20047;-44
2021/12/05 15:04:41;;;;;;;8.35;4.25;;;4.70;99.90;;;;;;5109050;28;20019;-46
2021/12/05 15:07:07;;;;;;;10.43;4.60;;;4.70;99.90;;;;;;5098291;28;20047;-48
2021/12/05 15:09:39;;;;;;;9.00;5.00;;;4.60;99.90;;;;;;5111545;28;20073;-46
2021/12/05 15:12:09;;;;;;;13.88;6.63;;;4.60;99.90;;;;;;5111008;28;20027;-45
2021/12/05 15:14:36;;;;;;;;;;;4.50;99.90;;;;;;5111115;28;20090;-45
2021/12/05 15:17:07;;;;;;;20.85;8.23;;;4.50;99.90;;;;;;5111169;28;19903;-45
2021/12/05 15:19:36;;;;;;;23.70;11.10;;;4.40;99.90;;;;;;5110338;28;20057;-45
2021/12/05 15:22:03;;;;;;;29.98;12.65;;;4.40;99.90;;;;;;5110817;28;20129;-45
2021/12/05 15:24:29;;;;;;;21.45;11.57;;;4.40;99.90;;;;;;5110126;28;20015;-44
2021/12/05 15:26:57;;;;;;;23.10;11.98;;;4.40;99.90;;;;;;5110625;28;20012;-45
2021/12/05 15:29:24;;;;;;;20.63;10.70;;;4.40;99.90;;;;;;5110970;28;20081;-45
2021/12/05 15:31:51;;;;;;;16.52;10.30;;;4.40;99.90;;;;;;5110812;28;20495;-46
2021/12/05 15:34:33;;;;;;;16.42;8.82;;;4.40;99.90;;;;;;5107698;28;20027;-45
2021/12/05 15:37:05;;;;;;;17.35;9.32;;;4.50;99.90;;;;;;5099292;28;20028;-45
2021/12/05 15:39:30;;;;;;;13.68;8.80;;;4.50;99.90;;;;;;5090224;28;20039;-45
2021/12/05 15:41:59;;;;;;;15.73;8.10;;;4.50;99.90;;;;;;5090686;28;20020;-45
2021/12/05 15:44:35;;;;;;;21.33;10.35;;;4.50;99.90;;;;;;5088149;28;20115;-45
2021/12/05 15:47:13;;;;;;;27.10;12.82;;;4.60;99.90;;;;;;5089101;28;20047;-44
2021/12/05 15:50:00;;;;;;;23.60;11.70;;;4.60;99.90;;;;;;5083086;28;20056;-45
2021/12/05 15:52:40;;;;;;;34.22;14.70;;;4.60;99.90;;;;;;5078194;28;20482;-45
2021/12/05 15:55:14;;;;;;;30.60;15.48;;;4.60;99.90;;;;;;5085222;28;20036;-45
2021/12/05 15:57:43;;;;;;;29.42;14.80;;;4.60;99.90;;;;;;5077269;28;20083;-45
2021/12/05 16:00:29;;;;;;;42.33;20.55;;;4.60;99.90;;;;;;5077946;28;20107;-44
2021/12/05 16:02:58;;;;;;;42.60;19.63;;;4.50;99.90;;;;;;5077985;28;20024;-46
2021/12/05 16:05:24;;;;;;;42.10;19.60;;;4.50;99.90;;;;;;5082142;28;20037;-45
2021/12/05 16:07:50;;;;;;;43.95;22.25;;;4.50;99.90;;;;;;5080147;28;20035;-45
2021/12/05 16:10:21;;;;;;;49.25;24.08;;;4.40;99.90;;;;;;5083407;28;20510;-46
2021/12/05 16:12:47;;;;;;;;;;;4.40;99.90;;;;;;5081587;28;20032;-46
2021/12/05 16:15:16;;;;;;;45.83;23.20;;;4.40;99.90;;;;;;5077866;28;19962;-45
2021/12/05 16:17:42;;;;;;;46.42;23.52;;;4.30;99.90;;;;;;5077638;28;20035;-45
2021/12/05 16:20:15;;;;;;;51.45;24.58;;;4.30;99.90;;;;;;5077939;28;20029;-45
2021/12/05 16:23:05;;;;;;;49.67;23.50;;;4.30;99.90;;;;;;5079634;28;20031;-45
2021/12/05 16:25:34;;;;;;;48.65;24.83;;;4.30;99.90;;;;;;5086500;28;20401;-44
2021/12/05 16:28:02;;;;;;;50.20;26.45;;;4.30;99.90;;;;;;5089526;28;20018;-45
2021/12/05 16:30:50;;;;;;;55.88;26.27;;;4.30;99.90;;;;;;5089244;28;20020;-46
2021/12/05 16:33:18;;;;;;;53.20;27.83;;;4.30;99.90;;;;;;5087434;28;20524;-45
2021/12/05 16:35:49;;;;;;;65.40;27.92;;;4.40;99.90;;;;;;5086770;28;20119;-45
2021/12/05 16:38:26;;;;;;;67.30;29.67;;;4.40;99.90;;;;;;5100520;28;20028;-46
2021/12/05 16:41:00;;;;;;;69.57;30.88;;;4.30;99.90;;;;;;5081644;28;20028;-46
2021/12/05 16:43:27;;;;;;;74.28;30.58;;;4.40;99.90;;;;;;5076607;28;20024;-46
2021/12/05 16:46:36;;;;;;;63.85;28.88;;;4.40;99.90;;;;;;5075532;28;20024;-45
2021/12/05 16:49:06;;;;;;;67.50;32.17;;;4.40;99.90;;;;;;5068964;28;20070;-44
2021/12/05 16:51:42;;;;;;;71.32;31.25;;;4.40;99.90;;;;;;5068809;28;20016;-46
2021/12/05 16:54:17;;;;;;;67.90;30.58;;;4.40;99.90;;;;;;5064781;28;20041;-45
2021/12/05 16:57:17;;;;;;;69.05;28.70;;;4.40;99.90;;;;;;5062756;28;20039;-45
2021/12/05 16:59:47;;;;;;;65.13;27.02;;;4.40;99.90;;;;;;5062260;28;20366;-46
2021/12/05 17:02:22;;;;;;;57.65;26.63;;;4.40;99.90;;;;;;5096893;28;20581;-45
2021/12/05 17:05:06;;;;;;;63.28;28.95;;;4.40;99.90;;;;;;5103385;28;20061;-45
2021/12/05 17:07:38;;;;;;;61.92;25.77;;;4.40;99.90;;;;;;5086137;28;20027;-45
2021/12/05 17:10:06;;;;;;;59.63;26.23;;;4.30;99.90;;;;;;5089593;28;20016;-46
2021/12/05 17:12:33;;;;;;;65.28;28.38;;;4.40;99.90;;;;;;5085402;28;20030;-45
2021/12/05 17:15:21;;;;;;;60.92;28.77;;;4.30;99.90;;;;;;5084585;28;20031;-47
2021/12/05 17:17:48;;;;;;;62.63;26.52;;;4.40;99.90;;;;;;5089486;28;20049;-46
2021/12/05 17:20:22;;;;;;;64.15;28.35;;;4.30;99.90;;;;;;5089039;28;20031;-45
2021/12/05 17:23:01;;;;;;;69.20;28.95;;;4.30;99.90;;;;;;5089928;28;20405;-46
2021/12/05 17:25:39;;;;;;;68.20;28.40;;;4.30;99.90;;;;;;5088979;28;20031;-46
2021/12/05 17:28:11;;;;;;;65.53;27.45;;;4.30;99.90;;;;;;5087778;28;20086;-45
2021/12/05 17:30:50;;;;;;;72.25;27.33;;;4.30;99.90;;;;;;5089677;28;20024;-46
2021/12/05 17:33:38;;;;;;;66.78;27.55;;;4.30;99.90;;;;;;5088689;28;20420;-45
2021/12/05 17:36:27;;;;;;;70.60;27.00;;;4.30;99.90;;;;;;5089689;28;20023;-46
2021/12/05 17:38:57;;;;;;;67.82;27.77;;;4.30;99.90;;;;;;5087158;28;20032;-45
2021/12/05 17:41:25;;;;;;;72.30;29.38;;;4.20;99.90;;;;;;5089492;28;20012;-44
2021/12/05 17:43:51;;;;;;;68.85;30.45;;;4.20;99.90;;;;;;5089758;28;20110;-45
2021/12/05 17:46:17;;;;;;;70.78;27.42;;;4.20;99.90;;;;;;5078061;28;20115;-46
2021/12/05 17:48:44;;;;;;;69.60;26.58;;;4.20;99.90;;;;;;5081314;28;20054;-46
2021/12/05 17:51:10;;;;;;;76.13;28.80;;;4.20;99.90;;;;;;5088130;28;20031;-45
2021/12/05 17:53:41;;;;;;;70.57;28.65;;;4.20;99.90;;;;;;5089355;28;20397;-47
2021/12/05 17:56:25;;;;;;;73.88;28.85;;;4.20;99.90;;;;;;5089202;28;20020;-46
2021/12/05 17:59:04;;;;;;;71.88;28.15;;;4.20;99.90;;;;;;5088580;28;20024;-46
2021/12/05 18:04:15;;;;;;;89.63;34.60;;;4.10;99.90;;;;;;5087200;28;20022;-47
2021/12/05 18:06:41;;;;;;;81.78;33.25;;;4.10;99.90;;;;;;5088503;28;20016;-46